Time;durP1;ratioP1;P1;durP2;ratioP2;P2;SDS_P1;SDS_P2;PMS_P1;PMS_P2;Temp;Humidity;BMP_temperature;BMP_pressure;BME280_temperature;BME280_humidity;BME280_pressure;Samples;Min_cycle;Max_cycle;Signal;HPM_P1;HPM_P2
2022/01/10 00:01:28;;;;;;;7.93;4.32;;;;;;;;;;6175757;23;20387;-46
2022/01/10 00:03:53;;;;;;;10.60;4.53;;;;;;;;;;6204419;23;20035;-44
2022/01/10 00:06:18;;;;;;;15.75;4.30;;;;;;;;;;6203351;23;20466;-45
2022/01/10 00:08:44;;;;;;;9.25;3.92;;;;;;;;;;6203575;23;20083;-45
2022/01/10 00:11:09;;;;;;;9.15;4.57;;;;;;;;;;6202198;23;20025;-49
2022/01/10 00:13:34;;;;;;;7.30;3.80;;;;;;;;;;6200573;23;20079;-46
2022/01/10 00:16:00;;;;;;;12.18;4.38;;;;;;;;;;6203844;23;20031;-45
2022/01/10 00:18:25;;;;;;;5.80;4.13;;;;;;;;;;6202329;23;20414;-46
2022/01/10 00:20:50;;;;;;;10.00;4.22;;;;;;;;;;6202770;23;20010;-46
2022/01/10 00:23:15;;;;;;;8.50;4.25;;;;;;;;;;6202449;23;20335;-46
2022/01/10 00:25:41;;;;;;;13.88;4.82;;;;;;;;;;6203540;23;20013;-46
2022/01/10 00:28:06;;;;;;;6.70;3.35;;;;;;;;;;6204342;23;20021;-46
2022/01/10 00:30:31;;;;;;;6.65;3.53;;;;;;;;;;6202037;23;20020;-48
2022/01/10 00:32:56;;;;;;;6.13;3.47;;;;;;;;;;6203530;23;20046;-47
2022/01/10 00:35:22;;;;;;;11.48;5.03;;;;;;;;;;6202134;23;20439;-46
2022/01/10 00:37:47;;;;;;;8.57;3.78;;;;;;;;;;6203801;23;20024;-47
2022/01/10 00:40:13;;;;;;;6.35;3.88;;;;;;;;;;6203281;23;20017;-48
2022/01/10 00:42:39;;;;;;;10.48;4.07;;;;;;;;;;6203320;23;20437;-47
2022/01/10 00:45:13;;;;;;;9.20;4.15;;;;;;;;;;6203034;23;20139;-49
2022/01/10 00:47:39;;;;;;;9.38;3.92;;;;;;;;;;6203547;23;20482;-46
2022/01/10 00:50:04;;;;;;;14.82;4.20;;;;;;;;;;6202431;23;20101;-46
2022/01/10 00:52:29;;;;;;;19.23;4.43;;;;;;;;;;6202909;23;20017;-47
2022/01/10 00:54:55;;;;;;;8.07;3.60;;;;;;;;;;6203894;23;20478;-47
2022/01/10 00:57:20;;;;;;;11.30;4.05;;;;;;;;;;6203140;23;20084;-46
2022/01/10 00:59:45;;;;;;;9.25;4.22;;;;;;;;;;6203425;23;20017;-46
2022/01/10 01:02:10;;;;;;;10.23;3.92;;;;;;;;;;6203839;23;20067;-46
2022/01/10 01:04:36;;;;;;;8.18;3.22;;;;;;;;;;6203007;23;20017;-47
2022/01/10 01:07:01;;;;;;;9.30;4.05;;;;;;;;;;6204471;23;20016;-46
2022/01/10 01:09:29;;;;;;;8.52;4.25;;;;;;;;;;6205935;23;20096;-48
2022/01/10 01:12:29;;;;;;;9.82;4.80;;;;;;;;;;6205634;23;20150;-48
2022/01/10 01:14:56;;;;;;;10.43;4.32;;;;;;;;;;6184485;23;20036;-46
2022/01/10 01:25:10;;;;;;;11.82;4.20;;;;;;;;;;6176798;23;20047;-48
2022/01/10 01:27:36;;;;;;;14.02;5.25;;;;;;;;;;6175720;23;20001;-46
2022/01/10 01:30:01;;;;;;;12.25;4.25;;;;;;;;;;6176136;23;20448;-46
2022/01/10 01:32:26;;;;;;;10.50;4.78;;;;;;;;;;6148736;23;20126;-46
2022/01/10 01:34:56;;;;;;;10.02;4.05;;;;;;;;;;6175781;23;20343;-49
2022/01/10 01:37:21;;;;;;;6.63;4.05;;;;;;;;;;6175265;23;20013;-48
2022/01/10 01:39:46;;;;;;;12.55;3.75;;;;;;;;;;6176592;23;20056;-47
2022/01/10 01:42:33;;;;;;;14.77;4.60;;;;;;;;;;6175360;23;20017;-47
2022/01/10 01:44:58;;;;;;;8.63;3.90;;;;;;;;;;6175800;23;20079;-46
2022/01/10 01:47:23;;;;;;;7.95;3.80;;;;;;;;;;6148610;23;20017;-46
2022/01/10 01:49:48;;;;;;;10.93;3.53;;;;;;;;;;6175022;23;20029;-48
2022/01/10 01:52:14;;;;;;;11.77;4.05;;;;;;;;;;6174328;23;20067;-46
2022/01/10 01:54:39;;;;;;;7.85;3.63;;;;;;;;;;6175758;23;20325;-47
2022/01/10 01:57:05;;;;;;;10.68;3.97;;;;;;;;;;6175729;23;20009;-51
2022/01/10 01:59:31;;;;;;;5.18;3.83;;;;;;;;;;6175646;23;20551;-48
2022/01/10 02:01:57;;;;;;;10.95;4.35;;;;;;;;;;6175387;23;20582;-47
2022/01/10 02:04:22;;;;;;;7.18;4.28;;;;;;;;;;6174939;23;20076;-47
2022/01/10 02:06:47;;;;;;;13.60;3.75;;;;;;;;;;6175349;23;20036;-47
2022/01/10 02:09:14;;;;;;;11.63;4.78;;;;;;;;;;6175932;23;20008;-48
2022/01/10 02:11:40;;;;;;;11.15;3.55;;;;;;;;;;6187185;23;20071;-49
2022/01/10 02:14:05;;;;;;;12.18;4.28;;;;;;;;;;6173369;23;20013;-47
2022/01/10 02:16:41;;;;;;;9.50;4.60;;;;;;;;;;6175270;23;20507;-46
2022/01/10 02:19:07;;;;;;;8.90;3.40;;;;;;;;;;6174690;23;20016;-48
2022/01/10 02:21:32;;;;;;;8.35;3.78;;;;;;;;;;6175420;23;21389;-46
2022/01/10 02:23:58;;;;;;;11.30;4.13;;;;;;;;;;6175335;23;20013;-46
2022/01/10 02:26:23;;;;;;;8.00;4.30;;;;;;;;;;6173126;23;20466;-46
2022/01/10 02:28:49;;;;;;;8.63;3.38;;;;;;;;;;6175487;23;20001;-46
2022/01/10 02:31:14;;;;;;;7.25;3.58;;;;;;;;;;6174627;23;20412;-49
2022/01/10 02:33:39;;;;;;;21.50;4.63;;;;;;;;;;6175168;23;20059;-46
2022/01/10 02:38:30;;;;;;;13.30;4.40;;;;;;;;;;6176003;23;20474;-46
2022/01/10 02:40:57;;;;;;;10.75;4.00;;;;;;;;;;6148592;23;20009;-47
2022/01/10 02:43:22;;;;;;;8.00;3.38;;;;;;;;;;6174936;23;20009;-47
2022/01/10 02:45:48;;;;;;;8.93;3.80;;;;;;;;;;6175272;23;20013;-49
2022/01/10 02:48:13;;;;;;;8.00;3.83;;;;;;;;;;6175500;23;20036;-44
2022/01/10 02:50:38;;;;;;;8.10;3.90;;;;;;;;;;6148459;23;20415;-47
2022/01/10 02:53:04;;;;;;;10.50;4.03;;;;;;;;;;6149224;23;20127;-49
2022/01/10 02:55:29;;;;;;;4.05;3.00;;;;;;;;;;6174531;23;20005;-47
2022/01/10 02:57:54;;;;;;;11.85;3.47;;;;;;;;;;6175862;23;20044;-48
2022/01/10 03:00:21;;;;;;;11.23;3.65;;;;;;;;;;6174088;23;20013;-45
2022/01/10 03:02:50;;;;;;;10.48;3.60;;;;;;;;;;6176169;23;20099;-46
2022/01/10 03:05:16;;;;;;;7.13;3.20;;;;;;;;;;6174024;23;20091;-50
2022/01/10 03:07:41;;;;;;;13.35;4.15;;;;;;;;;;6176184;23;20017;-48
2022/01/10 03:10:07;;;;;;;13.77;5.53;;;;;;;;;;6148751;23;20339;-48
2022/01/10 03:12:33;;;;;;;9.50;3.88;;;;;;;;;;6174854;23;20031;-46
2022/01/10 03:14:58;;;;;;;7.55;4.00;;;;;;;;;;6175195;23;20092;-47
2022/01/10 03:17:24;;;;;;;7.43;4.10;;;;;;;;;;6174608;23;20076;-48
2022/01/10 03:19:50;;;;;;;6.00;3.10;;;;;;;;;;6177160;23;20386;-47
2022/01/10 03:22:15;;;;;;;8.95;3.33;;;;;;;;;;6176756;23;20663;-48
2022/01/10 03:24:40;;;;;;;10.35;3.78;;;;;;;;;;6176860;23;20013;-46
2022/01/10 03:27:06;;;;;;;11.70;4.13;;;;;;;;;;6177480;23;20009;-49
2022/01/10 03:29:31;;;;;;;10.65;3.88;;;;;;;;;;6176158;23;20015;-47
2022/01/10 03:31:56;;;;;;;6.78;3.10;;;;;;;;;;6177549;23;20081;-47
2022/01/10 03:34:22;;;;;;;9.23;3.30;;;;;;;;;;6175832;23;20088;-46
2022/01/10 03:36:47;;;;;;;8.35;3.35;;;;;;;;;;6177640;23;20087;-46
2022/01/10 03:39:13;;;;;;;10.48;3.85;;;;;;;;;;6176774;23;20019;-49
2022/01/10 03:41:38;;;;;;;11.05;4.25;;;;;;;;;;6177261;23;20005;-46
2022/01/10 03:44:04;;;;;;;9.23;4.35;;;;;;;;;;6176598;23;20044;-47
2022/01/10 03:46:32;;;;;;;11.70;3.95;;;;;;;;;;6176522;23;20432;-47
2022/01/10 03:48:57;;;;;;;10.98;3.38;;;;;;;;;;6176545;23;20452;-46
2022/01/10 03:51:22;;;;;;;12.63;4.28;;;;;;;;;;6176164;23;20128;-47
2022/01/10 03:53:48;;;;;;;11.93;4.30;;;;;;;;;;6176841;23;20038;-50
2022/01/10 03:56:13;;;;;;;11.38;4.03;;;;;;;;;;6176754;23;20009;-43
2022/01/10 03:58:38;;;;;;;9.25;4.30;;;;;;;;;;6176487;23;20013;-47
2022/01/10 04:01:05;;;;;;;11.43;4.22;;;;;;;;;;6150892;23;20013;-47
2022/01/10 04:03:31;;;;;;;10.68;4.00;;;;;;;;;;6175871;23;20015;-51
2022/01/10 04:05:58;;;;;;;7.13;3.08;;;;;;;;;;6176726;23;20002;-48
2022/01/10 04:08:23;;;;;;;10.77;4.07;;;;;;;;;;6176405;23;20013;-49
2022/01/10 04:10:49;;;;;;;11.15;4.60;;;;;;;;;;6177381;23;20009;-46
2022/01/10 04:13:14;;;;;;;14.63;3.88;;;;;;;;;;6175919;23;20100;-48
2022/01/10 04:15:39;;;;;;;10.13;4.25;;;;;;;;;;6176827;23;20005;-49
2022/01/10 04:18:05;;;;;;;14.70;5.22;;;;;;;;;;6176817;23;20440;-46
2022/01/10 04:20:31;;;;;;;8.38;3.28;;;;;;;;;;6176485;23;20033;-50
2022/01/10 04:22:56;;;;;;;11.10;3.80;;;;;;;;;;6176232;23;20017;-46
2022/01/10 04:25:21;;;;;;;12.38;3.45;;;;;;;;;;6176395;23;20001;-46
2022/01/10 04:27:47;;;;;;;10.38;3.83;;;;;;;;;;6176552;23;20340;-46
2022/01/10 04:30:12;;;;;;;11.30;3.60;;;;;;;;;;6176322;23;20012;-50
2022/01/10 04:32:38;;;;;;;6.80;2.72;;;;;;;;;;6175356;23;20463;-50
2022/01/10 04:35:04;;;;;;;6.88;3.42;;;;;;;;;;6176523;23;20012;-49
2022/01/10 04:37:29;;;;;;;9.18;3.45;;;;;;;;;;6175702;23;20037;-46
2022/01/10 04:39:54;;;;;;;10.98;3.55;;;;;;;;;;6177026;23;20012;-48
2022/01/10 04:42:19;;;;;;;10.10;3.63;;;;;;;;;;6175650;23;20017;-45
2022/01/10 04:44:45;;;;;;;12.52;4.00;;;;;;;;;;6176584;23;20028;-47
2022/01/10 04:47:10;;;;;;;11.13;4.80;;;;;;;;;;6175898;23;20542;-48
2022/01/10 04:50:01;;;;;;;9.43;3.42;;;;;;;;;;6175866;23;20017;-48
2022/01/10 04:52:21;;;;;;;11.05;3.85;;;;;;;;;;6117064;23;20014;-48
2022/01/10 04:54:46;;;;;;;10.65;4.05;;;;;;;;;;6118030;23;20049;-47
2022/01/10 04:57:11;;;;;;;9.07;3.58;;;;;;;;;;6117512;23;20449;-49
2022/01/10 04:59:36;;;;;;;7.75;3.88;;;;;;;;;;6116762;23;20393;-48
2022/01/10 05:02:02;;;;;;;11.23;3.97;;;;;;;;;;6117805;23;20034;-51
2022/01/10 05:04:27;;;;;;;9.82;3.70;;;;;;;;;;6117874;23;20033;-47
2022/01/10 05:06:52;;;;;;;7.20;3.80;;;;;;;;;;6117270;23;20009;-47
2022/01/10 05:09:17;;;;;;;9.30;3.65;;;;;;;;;;6117353;23;20078;-48
2022/01/10 05:11:43;;;;;;;10.48;4.30;;;;;;;;;;6117666;23;20021;-46
2022/01/10 05:14:08;;;;;;;11.88;3.28;;;;;;;;;;6118199;23;20016;-49
2022/01/10 05:16:33;;;;;;;6.35;3.60;;;;;;;;;;6116816;23;20476;-47
2022/01/10 05:18:59;;;;;;;9.32;3.50;;;;;;;;;;6117810;23;20009;-50
2022/01/10 05:21:24;;;;;;;7.18;3.65;;;;;;;;;;6116563;23;20048;-47
2022/01/10 05:23:49;;;;;;;9.27;3.78;;;;;;;;;;6118022;23;20018;-48
2022/01/10 05:26:14;;;;;;;8.43;3.63;;;;;;;;;;6116564;23;20396;-46
2022/01/10 05:28:40;;;;;;;12.00;4.00;;;;;;;;;;6118019;23;20018;-47
2022/01/10 05:31:05;;;;;;;10.02;3.90;;;;;;;;;;6116797;23;20502;-48
2022/01/10 05:33:30;;;;;;;7.63;3.45;;;;;;;;;;6117462;23;20026;-46
2022/01/10 05:35:55;;;;;;;9.57;4.03;;;;;;;;;;6117168;23;20349;-48
2022/01/10 05:38:21;;;;;;;11.30;4.18;;;;;;;;;;6117477;23;20010;-47
2022/01/10 05:40:46;;;;;;;14.80;4.55;;;;;;;;;;6117396;23;20014;-50
2022/01/10 05:43:12;;;;;;;8.40;4.43;;;;;;;;;;6117419;23;20025;-47
2022/01/10 05:45:37;;;;;;;6.70;3.75;;;;;;;;;;6116521;23;20010;-47
2022/01/10 05:48:08;;;;;;;15.05;4.43;;;;;;;;;;6117662;23;20002;-47
2022/01/10 05:50:35;;;;;;;13.13;4.75;;;;;;;;;;6138881;23;20021;-47
2022/01/10 05:53:01;;;;;;;8.40;3.70;;;;;;;;;;6176256;23;20388;-47
2022/01/10 05:55:26;;;;;;;11.93;4.70;;;;;;;;;;6174958;23;20590;-47
2022/01/10 05:57:52;;;;;;;10.43;4.15;;;;;;;;;;6176767;23;20021;-46
2022/01/10 06:00:17;;;;;;;13.35;4.28;;;;;;;;;;6174832;23;20005;-47
2022/01/10 06:02:42;;;;;;;15.85;6.03;;;;;;;;;;6177010;23;20014;-47
2022/01/10 06:05:09;;;;;;;8.85;3.97;;;;;;;;;;6175757;23;20013;-48
2022/01/10 06:07:36;;;;;;;12.20;3.97;;;;;;;;;;6176066;23;20005;-47
2022/01/10 06:10:01;;;;;;;13.77;4.85;;;;;;;;;;6176155;23;20019;-49
2022/01/10 06:12:26;;;;;;;13.45;5.05;;;;;;;;;;6176214;23;20092;-48
2022/01/10 06:14:52;;;;;;;9.93;3.85;;;;;;;;;;6175800;23;20012;-48
2022/01/10 06:17:17;;;;;;;12.57;4.40;;;;;;;;;;6176032;23;20020;-47
2022/01/10 06:19:42;;;;;;;15.52;4.32;;;;;;;;;;6176116;23;20005;-49
2022/01/10 06:22:07;;;;;;;12.80;3.70;;;;;;;;;;6176027;23;20009;-47
2022/01/10 06:24:33;;;;;;;8.70;3.95;;;;;;;;;;6175450;23;20017;-47
2022/01/10 06:26:58;;;;;;;12.10;4.75;;;;;;;;;;6176054;23;20444;-49
2022/01/10 06:29:23;;;;;;;13.70;4.40;;;;;;;;;;6175372;23;20095;-46
2022/01/10 06:31:49;;;;;;;13.43;5.25;;;;;;;;;;6176135;23;20024;-46
2022/01/10 06:34:14;;;;;;;11.05;4.78;;;;;;;;;;6174876;23;20013;-45
2022/01/10 06:36:39;;;;;;;11.20;4.63;;;;;;;;;;6176007;23;20032;-47
2022/01/10 06:39:04;;;;;;;9.82;4.90;;;;;;;;;;6149109;23;20344;-46
2022/01/10 06:41:30;;;;;;;16.15;4.80;;;;;;;;;;6176009;23;20084;-46
2022/01/10 06:43:55;;;;;;;10.82;4.95;;;;;;;;;;6175979;23;20011;-46
2022/01/10 06:46:20;;;;;;;10.02;4.18;;;;;;;;;;6175440;23;20476;-47
2022/01/10 06:48:45;;;;;;;16.83;5.00;;;;;;;;;;6175881;23;20024;-47
2022/01/10 06:51:11;;;;;;;10.32;4.28;;;;;;;;;;6175695;23;20610;-47
2022/01/10 06:53:36;;;;;;;11.30;4.82;;;;;;;;;;6175475;23;20009;-49
2022/01/10 06:56:01;;;;;;;13.48;4.63;;;;;;;;;;6177759;23;20005;-47
2022/01/10 06:58:26;;;;;;;6.20;4.10;;;;;;;;;;6177427;23;20094;-46
2022/01/10 07:00:52;;;;;;;11.15;4.28;;;;;;;;;;6178545;23;20570;-48
2022/01/10 07:03:17;;;;;;;7.88;3.90;;;;;;;;;;6176466;23;20017;-47
2022/01/10 07:05:42;;;;;;;11.80;4.63;;;;;;;;;;6178242;23;20005;-50
2022/01/10 07:08:07;;;;;;;12.40;4.60;;;;;;;;;;6177463;23;20016;-47
2022/01/10 07:10:33;;;;;;;9.98;4.20;;;;;;;;;;6177989;23;20347;-48
2022/01/10 07:12:58;;;;;;;14.35;4.95;;;;;;;;;;6177413;23;20504;-47
2022/01/10 07:15:26;;;;;;;10.85;5.28;;;;;;;;;;6177465;23;20011;-46
2022/01/10 07:17:51;;;;;;;12.57;4.88;;;;;;;;;;6177212;23;20013;-46
2022/01/10 07:20:16;;;;;;;15.32;7.25;;;;;;;;;;6177870;23;20459;-46
2022/01/10 07:22:41;;;;;;;12.57;4.32;;;;;;;;;;6177659;23;20017;-47
2022/01/10 07:25:07;;;;;;;13.98;4.80;;;;;;;;;;6151885;23;20016;-46
2022/01/10 07:27:33;;;;;;;9.82;4.72;;;;;;;;;;6176842;23;20013;-46
2022/01/10 07:29:59;;;;;;;6.07;3.75;;;;;;;;;;6177942;23;20028;-46
2022/01/10 07:32:29;;;;;;;6.93;4.35;;;;;;;;;;6176384;23;20125;-49
2022/01/10 07:34:54;;;;;;;12.15;4.13;;;;;;;;;;6176651;23;20017;-47
2022/01/10 07:37:20;;;;;;;13.10;4.03;;;;;;;;;;6175245;23;20401;-47
2022/01/10 07:39:45;;;;;;;16.92;4.78;;;;;;;;;;6177835;23;20035;-49
2022/01/10 07:42:10;;;;;;;9.35;4.55;;;;;;;;;;6177552;23;20012;-47
2022/01/10 07:44:36;;;;;;;9.55;3.80;;;;;;;;;;6177013;23;20055;-47
2022/01/10 07:47:02;;;;;;;15.35;5.57;;;;;;;;;;6177167;23;20013;-47
2022/01/10 07:49:27;;;;;;;5.28;3.15;;;;;;;;;;6176565;23;20012;-49
2022/01/10 07:51:53;;;;;;;8.30;4.38;;;;;;;;;;6177200;23;20017;-51
2022/01/10 07:54:18;;;;;;;10.48;3.38;;;;;;;;;;6177147;23;20039;-47
2022/01/10 07:56:44;;;;;;;7.75;3.45;;;;;;;;;;6177924;23;20009;-48
2022/01/10 07:59:09;;;;;;;8.32;4.57;;;;;;;;;;6177045;23;20447;-49
2022/01/10 08:01:34;;;;;;;7.70;3.63;;;;;;;;;;6177547;23;20010;-52
2022/01/10 08:03:59;;;;;;;13.05;4.82;;;;;;;;;;6177257;23;20009;-48
2022/01/10 08:06:25;;;;;;;13.13;4.78;;;;;;;;;;6176946;23;20531;-46
2022/01/10 08:08:50;;;;;;;9.15;4.20;;;;;;;;;;6177235;23;20013;-45
2022/01/10 08:11:16;;;;;;;13.13;4.72;;;;;;;;;;6177093;23;20032;-47
2022/01/10 08:13:41;;;;;;;12.75;4.00;;;;;;;;;;6177257;23;20095;-46
2022/01/10 08:16:06;;;;;;;4.30;3.05;;;;;;;;;;6178141;23;20005;-49
2022/01/10 08:18:33;;;;;;;10.93;4.57;;;;;;;;;;6175754;23;20088;-47
2022/01/10 08:20:59;;;;;;;6.75;4.13;;;;;;;;;;6177591;23;20558;-47
2022/01/10 08:23:24;;;;;;;11.32;4.90;;;;;;;;;;6177112;23;20032;-45
2022/01/10 08:25:49;;;;;;;12.35;3.92;;;;;;;;;;6177392;23;20007;-46
2022/01/10 08:28:14;;;;;;;11.52;4.18;;;;;;;;;;6176999;23;20470;-48
2022/01/10 08:30:40;;;;;;;11.07;4.30;;;;;;;;;;6177176;23;20035;-46
2022/01/10 08:33:05;;;;;;;9.20;3.92;;;;;;;;;;6177690;23;20021;-48
2022/01/10 08:35:30;;;;;;;5.32;3.67;;;;;;;;;;6176440;23;20597;-46
2022/01/10 08:37:56;;;;;;;7.78;4.05;;;;;;;;;;6177693;23;20005;-47
2022/01/10 08:40:21;;;;;;;4.88;3.33;;;;;;;;;;6176582;23;20029;-47
2022/01/10 08:42:46;;;;;;;10.48;3.65;;;;;;;;;;6177343;23;20005;-46
2022/01/10 08:45:12;;;;;;;14.82;4.75;;;;;;;;;;6177378;23;20005;-48
2022/01/10 08:47:38;;;;;;;15.05;3.85;;;;;;;;;;6176225;23;20032;-47
2022/01/10 08:50:04;;;;;;;9.90;4.20;;;;;;;;;;6176625;23;20028;-48
2022/01/10 08:52:29;;;;;;;14.27;3.65;;;;;;;;;;6176579;23;20010;-47
2022/01/10 08:54:54;;;;;;;8.77;3.90;;;;;;;;;;6172557;23;20013;-47
2022/01/10 08:57:20;;;;;;;11.27;3.40;;;;;;;;;;6173073;23;20016;-46
2022/01/10 08:59:45;;;;;;;8.07;2.72;;;;;;;;;;6174580;23;20009;-47
2022/01/10 09:02:11;;;;;;;7.93;3.13;;;;;;;;;;6173071;23;20016;-46
2022/01/10 09:04:36;;;;;;;7.03;3.70;;;;;;;;;;6173758;23;20044;-48
2022/01/10 09:07:02;;;;;;;10.80;4.22;;;;;;;;;;6174077;23;20063;-45
2022/01/10 09:09:28;;;;;;;11.32;3.78;;;;;;;;;;6172572;23;20011;-49
2022/01/10 09:11:53;;;;;;;6.93;3.35;;;;;;;;;;6169292;23;20474;-46
2022/01/10 09:14:18;;;;;;;7.18;2.97;;;;;;;;;;6170058;23;20102;-46
2022/01/10 09:16:44;;;;;;;12.65;3.33;;;;;;;;;;6169202;23;20104;-45
2022/01/10 09:19:09;;;;;;;8.52;3.30;;;;;;;;;;6169482;23;20016;-48
2022/01/10 09:21:34;;;;;;;8.48;3.13;;;;;;;;;;6144369;23;20080;-45
2022/01/10 09:24:00;;;;;;;6.78;2.70;;;;;;;;;;6170480;23;20009;-46
2022/01/10 09:26:25;;;;;;;8.63;3.90;;;;;;;;;;6169903;23;20012;-45
2022/01/10 09:28:51;;;;;;;9.15;3.40;;;;;;;;;;6170571;23;20128;-45
2022/01/10 09:31:17;;;;;;;6.22;2.65;;;;;;;;;;6170282;23;20032;-47
2022/01/10 09:33:43;;;;;;;10.77;3.30;;;;;;;;;;6143624;23;20005;-49
2022/01/10 09:36:08;;;;;;;10.57;2.97;;;;;;;;;;6171697;23;20035;-48
2022/01/10 09:38:34;;;;;;;7.25;3.03;;;;;;;;;;6169994;23;20351;-45
2022/01/10 09:40:59;;;;;;;13.20;3.45;;;;;;;;;;6170962;23;20013;-47
2022/01/10 09:43:25;;;;;;;3.50;2.70;;;;;;;;;;6170016;23;20078;-46
2022/01/10 09:45:56;;;;;;;5.85;3.08;;;;;;;;;;6143838;23;20112;-47
2022/01/10 09:48:21;;;;;;;6.82;3.17;;;;;;;;;;6170052;23;20029;-47
2022/01/10 09:50:47;;;;;;;10.40;2.97;;;;;;;;;;6138425;23;20648;-46
2022/01/10 09:53:13;;;;;;;6.97;2.72;;;;;;;;;;6141012;23;20045;-48
2022/01/10 09:55:38;;;;;;;5.13;3.10;;;;;;;;;;6153171;23;20016;-49
2022/01/10 09:58:03;;;;;;;11.60;3.85;;;;;;;;;;6140026;23;20020;-46
2022/01/10 10:00:29;;;;;;;9.93;3.08;;;;;;;;;;6140576;23;20462;-45
2022/01/10 10:02:54;;;;;;;11.20;3.78;;;;;;;;;;6140574;23;20519;-47
2022/01/10 10:05:20;;;;;;;8.82;3.30;;;;;;;;;;6139303;23;20145;-46
2022/01/10 10:07:45;;;;;;;7.97;3.67;;;;;;;;;;6140754;23;20044;-48
2022/01/10 10:10:12;;;;;;;8.30;3.03;;;;;;;;;;6139570;23;20344;-47
2022/01/10 10:12:49;;;;;;;7.05;3.25;;;;;;;;;;6140292;23;20025;-47
2022/01/10 10:15:17;;;;;;;6.78;2.75;;;;;;;;;;6140000;23;20015;-46
2022/01/10 10:17:43;;;;;;;9.90;4.07;;;;;;;;;;6140655;23;20024;-47
2022/01/10 10:20:09;;;;;;;6.32;2.97;;;;;;;;;;6139644;23;20029;-48
2022/01/10 10:22:34;;;;;;;7.70;3.40;;;;;;;;;;6140686;23;20707;-46
2022/01/10 10:25:00;;;;;;;11.18;3.55;;;;;;;;;;6138892;23;20012;-45
2022/01/10 10:27:25;;;;;;;6.45;2.92;;;;;;;;;;6140264;23;20002;-46
2022/01/10 10:29:51;;;;;;;6.80;2.95;;;;;;;;;;6140340;23;20085;-46
2022/01/10 10:32:16;;;;;;;4.22;2.72;;;;;;;;;;6139319;23;20020;-49
2022/01/10 10:34:42;;;;;;;7.43;2.67;;;;;;;;;;6141350;23;20006;-48
2022/01/10 10:37:12;;;;;;;8.75;3.53;;;;;;;;;;6139654;23;20444;-48
2022/01/10 10:39:43;;;;;;;6.45;3.05;;;;;;;;;;6140059;23;20018;-47
2022/01/10 10:42:09;;;;;;;7.22;2.33;;;;;;;;;;6140229;23;20417;-46
2022/01/10 10:44:35;;;;;;;9.18;3.28;;;;;;;;;;6141097;23;20872;-47
2022/01/10 10:47:00;;;;;;;5.10;2.05;;;;;;;;;;6138762;23;20079;-45
2022/01/10 10:49:32;;;;;;;4.93;2.15;;;;;;;;;;6140031;23;20037;-47
2022/01/10 10:51:58;;;;;;;3.35;1.80;;;;;;;;;;6138312;23;20180;-45
2022/01/10 10:54:24;;;;;;;8.10;2.30;;;;;;;;;;6138601;23;20016;-45
2022/01/10 10:56:49;;;;;;;7.45;2.40;;;;;;;;;;6140539;23;20014;-45
2022/01/10 10:59:14;;;;;;;3.17;2.50;;;;;;;;;;6136249;23;20015;-45
2022/01/10 11:01:40;;;;;;;5.97;2.30;;;;;;;;;;6139871;23;20449;-46
2022/01/10 11:04:09;;;;;;;5.82;1.75;;;;;;;;;;6141176;23;20037;-45
2022/01/10 11:06:34;;;;;;;9.95;1.92;;;;;;;;;;6138363;23;20018;-45
2022/01/10 11:09:01;;;;;;;4.93;1.50;;;;;;;;;;6139982;23;20014;-46
2022/01/10 11:11:27;;;;;;;5.03;2.15;;;;;;;;;;6135849;23;20032;-48
2022/01/10 11:13:56;;;;;;;5.03;1.80;;;;;;;;;;6139285;23;20376;-47
2022/01/10 11:16:22;;;;;;;5.97;2.20;;;;;;;;;;6138302;23;20009;-46
2022/01/10 11:18:48;;;;;;;4.78;2.17;;;;;;;;;;6140228;23;20496;-47
2022/01/10 11:21:13;;;;;;;5.00;2.10;;;;;;;;;;6136503;23;20020;-43
2022/01/10 11:23:39;;;;;;;2.47;1.73;;;;;;;;;;6141209;23;20064;-45
2022/01/10 11:26:05;;;;;;;2.78;1.73;;;;;;;;;;6139783;23;20010;-45
2022/01/10 11:28:31;;;;;;;6.00;2.30;;;;;;;;;;6139094;23;20016;-44
2022/01/10 11:31:02;;;;;;;7.00;2.83;;;;;;;;;;6139353;23;20522;-44
2022/01/10 11:33:32;;;;;;;6.85;2.55;;;;;;;;;;6137144;23;20013;-45
2022/01/10 11:36:01;;;;;;;5.68;2.00;;;;;;;;;;6139845;23;20006;-45
2022/01/10 11:38:33;;;;;;;10.75;2.95;;;;;;;;;;6139441;23;20325;-44
2022/01/10 11:41:00;;;;;;;8.98;3.03;;;;;;;;;;6138569;23;20017;-46
2022/01/10 11:43:28;;;;;;;12.32;4.55;;;;;;;;;;6140982;23;20274;-45
2022/01/10 11:46:05;;;;;;;7.90;2.50;;;;;;;;;;6141054;23;20006;-47
2022/01/10 11:48:50;;;;;;;4.45;2.60;;;;;;;;;;6140242;23;20010;-47
2022/01/10 11:51:25;;;;;;;7.47;2.70;;;;;;;;;;6160524;23;20021;-45
2022/01/10 11:54:06;;;;;;;4.93;3.25;;;;;;;;;;6172341;23;20013;-45
2022/01/10 11:56:32;;;;;;;6.07;2.90;;;;;;;;;;6144117;23;20072;-49
2022/01/10 11:59:11;;;;;;;3.20;2.45;;;;;;;;;;6170418;23;20506;-47
2022/01/10 12:01:38;;;;;;;13.83;3.10;;;;;;;;;;6143130;23;20011;-46
2022/01/10 12:04:03;;;;;;;7.43;3.25;;;;;;;;;;6171458;23;20227;-45
2022/01/10 12:06:29;;;;;;;7.60;3.78;;;;;;;;;;6170362;23;20027;-45
2022/01/10 12:08:54;;;;;;;11.75;3.53;;;;;;;;;;6170388;23;20017;-46
2022/01/10 12:11:23;;;;;;;6.75;2.50;;;;;;;;;;6170471;23;19997;-45
2022/01/10 12:13:49;;;;;;;8.43;2.58;;;;;;;;;;6171506;23;20006;-44
2022/01/10 12:16:14;;;;;;;5.68;3.13;;;;;;;;;;6169607;23;20005;-43
2022/01/10 12:18:39;;;;;;;7.60;2.92;;;;;;;;;;6171265;23;20005;-44
2022/01/10 12:21:05;;;;;;;4.65;2.20;;;;;;;;;;6170294;23;20028;-44
2022/01/10 12:23:30;;;;;;;9.70;3.53;;;;;;;;;;6171771;23;20017;-46
2022/01/10 12:25:55;;;;;;;8.90;3.00;;;;;;;;;;6170489;23;20005;-47
2022/01/10 12:28:21;;;;;;;5.60;3.40;;;;;;;;;;6144036;23;20020;-48
2022/01/10 12:30:47;;;;;;;5.78;2.90;;;;;;;;;;6171071;23;20679;-46
2022/01/10 12:33:12;;;;;;;6.43;3.50;;;;;;;;;;6171078;23;20101;-48
2022/01/10 12:35:37;;;;;;;4.82;2.15;;;;;;;;;;6201369;23;20024;-48
2022/01/10 12:38:03;;;;;;;5.72;3.30;;;;;;;;;;6201099;23;20028;-45
2022/01/10 12:40:31;;;;;;;9.88;3.17;;;;;;;;;;6201145;23;20004;-44
2022/01/10 12:42:57;;;;;;;5.95;2.92;;;;;;;;;;6200346;23;20004;-48
2022/01/10 12:45:22;;;;;;;6.97;2.95;;;;;;;;;;6200643;23;20091;-47
2022/01/10 12:47:48;;;;;;;6.15;2.88;;;;;;;;;;6174245;23;20004;-46
2022/01/10 12:50:13;;;;;;;4.85;2.95;;;;;;;;;;6195264;23;20023;-46
2022/01/10 12:52:39;;;;;;;8.30;3.38;;;;;;;;;;6196928;23;20032;-46
2022/01/10 12:55:05;;;;;;;11.32;4.78;;;;;;;;;;6198784;23;20012;-47
2022/01/10 12:57:30;;;;;;;9.90;3.53;;;;;;;;;;6196385;23;20099;-48
2022/01/10 12:59:56;;;;;;;10.05;4.03;;;;;;;;;;6198764;23;20012;-45
2022/01/10 13:02:22;;;;;;;8.55;4.53;;;;;;;;;;6196247;23;20351;-46
2022/01/10 13:04:47;;;;;;;7.40;3.75;;;;;;;;;;6199363;23;20083;-47
2022/01/10 13:07:14;;;;;;;6.50;3.58;;;;;;;;;;6196944;23;20014;-41
2022/01/10 13:09:40;;;;;;;8.60;3.88;;;;;;;;;;6197718;23;20004;-46
2022/01/10 13:12:13;;;;;;;8.02;4.28;;;;;;;;;;6197995;23;20055;-45
2022/01/10 13:14:39;;;;;;;8.30;4.38;;;;;;;;;;6196464;23;20019;-47
2022/01/10 13:17:07;;;;;;;7.93;4.15;;;;;;;;;;6196976;23;20020;-45
2022/01/10 13:19:33;;;;;;;9.23;4.22;;;;;;;;;;6197477;23;20533;-46
2022/01/10 13:22:02;;;;;;;8.27;3.60;;;;;;;;;;6198021;23;20016;-46
2022/01/10 13:24:28;;;;;;;4.40;3.00;;;;;;;;;;6196460;23;20008;-46
2022/01/10 13:26:54;;;;;;;5.35;3.03;;;;;;;;;;6198800;23;20031;-45
2022/01/10 13:29:37;;;;;;;11.00;3.22;;;;;;;;;;6196255;23;20435;-45
2022/01/10 13:32:11;;;;;;;8.98;3.28;;;;;;;;;;6196930;23;20079;-45
2022/01/10 13:34:37;;;;;;;7.72;3.15;;;;;;;;;;6196209;23;20049;-45
2022/01/10 13:37:02;;;;;;;7.50;3.53;;;;;;;;;;6198137;23;20364;-47
2022/01/10 13:39:28;;;;;;;8.63;4.30;;;;;;;;;;6198611;23;20012;-46
2022/01/10 13:42:01;;;;;;;7.88;3.95;;;;;;;;;;6198705;23;20012;-46
2022/01/10 13:44:26;;;;;;;9.70;3.60;;;;;;;;;;6200562;23;20012;-46
2022/01/10 13:47:02;;;;;;;6.20;2.92;;;;;;;;;;6200601;23;20646;-47
2022/01/10 13:49:28;;;;;;;7.85;3.58;;;;;;;;;;6199203;23;20072;-46
2022/01/10 13:52:10;;;;;;;7.35;3.55;;;;;;;;;;6199099;23;20024;-45
2022/01/10 13:54:35;;;;;;;8.45;3.47;;;;;;;;;;6199121;23;20079;-51
2022/01/10 13:57:17;;;;;;;4.65;3.03;;;;;;;;;;6200011;23;20095;-47
2022/01/10 13:59:43;;;;;;;6.45;3.53;;;;;;;;;;6201041;23;20058;-48
2022/01/10 14:02:09;;;;;;;8.77;4.80;;;;;;;;;;6199276;23;20115;-47
2022/01/10 14:04:35;;;;;;;8.82;3.38;;;;;;;;;;6199203;23;20024;-46
2022/01/10 14:07:08;;;;;;;5.28;3.13;;;;;;;;;;6199819;23;20011;-47
2022/01/10 14:09:33;;;;;;;5.15;3.17;;;;;;;;;;6199673;23;20443;-46
2022/01/10 14:11:59;;;;;;;7.05;3.90;;;;;;;;;;6199235;23;20031;-46
2022/01/10 14:14:28;;;;;;;5.57;3.17;;;;;;;;;;6200297;23;20059;-46
2022/01/10 14:16:55;;;;;;;6.32;2.95;;;;;;;;;;6199284;23;20051;-50
2022/01/10 14:19:24;;;;;;;9.02;4.40;;;;;;;;;;6174174;23;20016;-46
2022/01/10 14:21:49;;;;;;;8.75;3.25;;;;;;;;;;6199939;23;20501;-48
2022/01/10 14:24:19;;;;;;;8.70;4.63;;;;;;;;;;6199064;23;20004;-50
2022/01/10 14:26:44;;;;;;;5.25;3.45;;;;;;;;;;6199379;23;20011;-47
2022/01/10 14:29:10;;;;;;;12.70;4.65;;;;;;;;;;6199996;23;20005;-48
2022/01/10 14:31:35;;;;;;;9.43;3.90;;;;;;;;;;6198980;23;20066;-46
2022/01/10 14:34:00;;;;;;;8.82;3.58;;;;;;;;;;6199513;23;20103;-46
2022/01/10 14:36:26;;;;;;;8.32;4.15;;;;;;;;;;6198912;23;20098;-46
2022/01/10 14:38:51;;;;;;;9.82;3.78;;;;;;;;;;6200746;23;20012;-47
2022/01/10 14:41:16;;;;;;;13.52;3.72;;;;;;;;;;6199652;23;20009;-47
2022/01/10 14:43:42;;;;;;;6.68;3.72;;;;;;;;;;6198697;23;20076;-47